createdAt,value
2023-03-23T15:59:51.574Z,15.86
2023-03-23T16:03:22.636Z,15.81
2023-03-23T16:06:52.507Z,15.74
2023-03-23T16:10:23.584Z,15.67
2023-03-23T16:13:51.961Z,15.56
2023-03-23T16:17:23.204Z,15.41
2023-03-23T16:20:53.239Z,15.28
2023-03-23T16:24:20.668Z,15.17
2023-03-23T16:27:52.586Z,15.10
2023-03-23T16:31:20.561Z,15.05
2023-03-23T16:34:48.223Z,15.01
2023-03-23T16:38:18.158Z,14.95
2023-03-23T16:41:46.383Z,14.88
2023-03-23T16:45:14.974Z,14.82
2023-03-23T16:48:42.273Z,14.73
2023-03-23T16:52:12.948Z,14.63
2023-03-23T16:55:44.972Z,14.54
2023-03-23T16:59:15.505Z,14.46
2023-03-23T17:02:47.203Z,14.35
2023-03-23T17:06:15.372Z,14.23
2023-03-23T17:09:47.047Z,14.08
2023-03-23T17:13:17.485Z,13.93
2023-03-23T17:16:45.738Z,13.78
2023-03-23T17:20:15.076Z,13.65
2023-03-23T17:23:42.246Z,13.51
2023-03-23T17:27:09.955Z,13.39
2023-03-23T17:30:41.004Z,13.27
2023-03-23T17:34:10.330Z,13.19
2023-03-23T17:37:45.288Z,13.13
2023-03-23T17:41:13.892Z,13.09
2023-03-23T17:44:42.584Z,13.08
2023-03-23T17:48:11.114Z,13.09
2023-03-23T17:51:38.933Z,13.08
2023-03-23T17:55:08.914Z,13.07
2023-03-23T17:58:37.006Z,13.07
2023-03-23T18:02:04.504Z,13.06
2023-03-23T18:05:32.389Z,13.05
2023-03-23T18:08:59.592Z,13.03
2023-03-23T18:12:27.364Z,13.01
2023-03-23T18:15:56.884Z,12.98
2023-03-23T18:19:24.420Z,12.94
2023-03-23T18:22:52.393Z,12.91
2023-03-23T18:26:21.959Z,12.90
2023-03-23T18:29:50.831Z,12.89
2023-03-23T18:33:20.897Z,12.86
2023-03-23T18:36:49.188Z,12.78
2023-03-23T18:40:21.768Z,12.72
2023-03-23T18:43:49.953Z,12.67
2023-03-23T18:47:18.489Z,12.63
2023-03-23T18:50:50.184Z,12.59
2023-03-23T18:54:19.236Z,12.51
2023-03-23T18:57:49.539Z,12.43
2023-03-23T19:01:18.426Z,12.32
2023-03-23T19:04:46.704Z,12.21
2023-03-23T19:08:14.197Z,12.10
2023-03-23T19:11:41.753Z,11.99
2023-03-23T19:15:10.906Z,11.88
2023-03-23T19:18:38.600Z,11.77
2023-03-23T19:22:08.757Z,11.68
2023-03-23T19:25:36.839Z,11.58
2023-03-23T19:29:25.415Z,11.51
2023-03-23T19:32:52.894Z,11.45
2023-03-23T19:36:21.687Z,11.39
2023-03-23T19:39:49.127Z,11.34
2023-03-23T19:43:17.101Z,11.28
2023-03-23T19:46:44.709Z,11.21
2023-03-23T19:50:12.650Z,11.15
2023-03-23T19:53:40.177Z,11.08
2023-03-23T19:57:08.298Z,11.00
2023-03-23T20:00:37.698Z,10.93
2023-03-23T20:04:06.988Z,10.85
2023-03-23T20:07:40.785Z,10.78
2023-03-23T20:11:12.636Z,10.73
2023-03-23T20:14:44.972Z,10.68
2023-03-23T20:18:14.808Z,10.63
2023-03-23T20:21:41.963Z,10.58
2023-03-23T20:25:10.198Z,10.53
2023-03-23T20:28:37.477Z,10.51
2023-03-23T20:32:04.745Z,10.49
2023-03-23T20:35:32.010Z,10.46
2023-03-23T20:38:59.448Z,10.42
2023-03-23T20:42:26.606Z,10.36
2023-03-23T20:45:55.249Z,10.32
2023-03-23T20:49:23.297Z,10.27
2023-03-23T20:52:50.320Z,10.20
2023-03-23T20:56:17.387Z,10.14
2023-03-23T20:59:44.715Z,10.07
2023-03-23T21:03:12.974Z,10.01
2023-03-23T21:06:40.418Z,9.95
2023-03-23T21:10:08.054Z,9.90
2023-03-23T21:13:36.581Z,9.84
2023-03-23T21:17:04.239Z,9.75
2023-03-23T21:20:32.384Z,9.64
2023-03-23T21:23:59.688Z,9.54
2023-03-23T21:27:27.203Z,9.42
2023-03-23T21:30:54.837Z,9.32
2023-03-23T21:34:21.986Z,9.23
2023-03-23T21:37:50.184Z,9.16
2023-03-23T21:41:17.365Z,9.14
2023-03-23T21:44:45.987Z,9.12
2023-03-23T21:48:15.525Z,9.12
2023-03-23T21:51:44.139Z,9.12
2023-03-23T21:55:12.538Z,9.13
2023-03-23T21:58:40.128Z,9.16
2023-03-23T22:02:07.659Z,9.17
2023-03-23T22:05:35.112Z,9.17
2023-03-23T22:09:02.249Z,9.15
2023-03-23T22:12:31.976Z,9.13
2023-03-23T22:16:00.871Z,9.10
2023-03-23T22:19:29.301Z,9.06
2023-03-23T22:22:56.930Z,8.98
2023-03-23T22:26:25.031Z,8.91
2023-03-23T22:29:52.076Z,8.83
2023-03-23T22:33:20.079Z,8.77
2023-03-23T22:36:47.695Z,8.70
2023-03-23T22:40:15.596Z,8.62
2023-03-23T22:43:42.815Z,8.55
2023-03-23T22:47:10.140Z,8.49
2023-03-23T22:50:37.505Z,8.44
2023-03-23T22:54:04.655Z,8.41
2023-03-23T22:57:32.030Z,8.40
2023-03-23T23:01:01.467Z,8.41
2023-03-23T23:04:28.721Z,8.40
2023-03-23T23:07:56.047Z,8.39
2023-03-23T23:11:25.375Z,8.37
2023-03-23T23:14:52.486Z,8.36
2023-03-23T23:18:20.639Z,8.36
2023-03-23T23:21:47.696Z,8.35
2023-03-23T23:25:14.811Z,8.35
2023-03-23T23:28:42.402Z,8.38
2023-03-23T23:32:09.534Z,8.40
2023-03-23T23:35:37.132Z,8.39
2023-03-23T23:39:06.096Z,8.37
2023-03-23T23:42:33.135Z,8.35
2023-03-23T23:46:00.209Z,8.32
2023-03-23T23:49:28.865Z,8.28
2023-03-23T23:52:58.768Z,8.24
2023-03-23T23:56:24.177Z,8.19
2023-03-23T23:59:51.566Z,8.13
